EZY363V EGSS-EGPH
Flight info
| Callsign | EZY363V |
|---|---|
| Flight time | 0h 59m |
| Altitude | 32000 |
| Route | UTAVA Q75 BUZAD T420 TNT UN57 POL UN601 RIBEL DCT INPIP |
| Aircraft | A320/M-SDE3FGHIRWY/LB1 |
Departure
| Time | 2026-04-22 12:27 |
|---|---|
| Airport | London Stansted Airport (EGSS) |
Arrival
| Time | 2026-04-22 13:27 |
|---|---|
| Airport | Edinburgh Airport (EGPH) |
| Time | Latitude | Longitude | Altitude | Speed | Heading |
|---|---|---|---|---|---|
| 2026-04-22 11:46 | 51.89081 | 0.25646 | 353 ft | 0 kts | 42° |
| 2026-04-22 12:13 | 51.89077 | 0.25640 | 352 ft | 4 kts | 42° |
| 2026-04-22 12:13 | 51.89058 | 0.25612 | 361 ft | 2 kts | 43° |
| 2026-04-22 12:13 | 51.89042 | 0.25587 | 359 ft | 4 kts | 38° |
| 2026-04-22 12:14 | 51.89020 | 0.25567 | 362 ft | 4 kts | 358° |
| 2026-04-22 12:14 | 51.89003 | 0.25582 | 362 ft | 4 kts | 313° |
| 2026-04-22 12:14 | 51.88997 | 0.25593 | 357 ft | 0 kts | 313° |
| 2026-04-22 12:17 | 51.89000 | 0.25587 | 359 ft | 2 kts | 313° |
| 2026-04-22 12:17 | 51.89024 | 0.25546 | 360 ft | 8 kts | 313° |
| 2026-04-22 12:17 | 51.89067 | 0.25470 | 356 ft | 9 kts | 312° |
| 2026-04-22 12:17 | 51.89108 | 0.25400 | 358 ft | 8 kts | 313° |
| 2026-04-22 12:18 | 51.89145 | 0.25335 | 357 ft | 7 kts | 313° |
| 2026-04-22 12:18 | 51.89178 | 0.25278 | 355 ft | 7 kts | 313° |
| 2026-04-22 12:18 | 51.89215 | 0.25216 | 352 ft | 10 kts | 314° |
| 2026-04-22 12:18 | 51.89241 | 0.25125 | 354 ft | 9 kts | 260° |
| 2026-04-22 12:19 | 51.89213 | 0.25041 | 358 ft | 9 kts | 237° |
| 2026-04-22 12:19 | 51.89159 | 0.24952 | 354 ft | 12 kts | 222° |
| 2026-04-22 12:19 | 51.89097 | 0.24862 | 361 ft | 12 kts | 223° |
| 2026-04-22 12:19 | 51.89041 | 0.24776 | 355 ft | 11 kts | 224° |
| 2026-04-22 12:20 | 51.88983 | 0.24688 | 352 ft | 13 kts | 223° |
| 2026-04-22 12:20 | 51.88913 | 0.24585 | 360 ft | 14 kts | 222° |
| 2026-04-22 12:20 | 51.88846 | 0.24485 | 356 ft | 13 kts | 222° |
| 2026-04-22 12:20 | 51.88769 | 0.24369 | 351 ft | 16 kts | 223° |
| 2026-04-22 12:21 | 51.88687 | 0.24246 | 347 ft | 17 kts | 223° |
| 2026-04-22 12:21 | 51.88603 | 0.24116 | 347 ft | 16 kts | 223° |
| 2026-04-22 12:21 | 51.88522 | 0.23998 | 335 ft | 15 kts | 223° |
| 2026-04-22 12:21 | 51.88450 | 0.23890 | 348 ft | 12 kts | 223° |
| 2026-04-22 12:22 | 51.88394 | 0.23805 | 346 ft | 10 kts | 223° |
| 2026-04-22 12:22 | 51.88331 | 0.23711 | 349 ft | 18 kts | 223° |
| 2026-04-22 12:22 | 51.88241 | 0.23574 | 352 ft | 18 kts | 224° |
| 2026-04-22 12:22 | 51.88149 | 0.23436 | 338 ft | 18 kts | 223° |
| 2026-04-22 12:23 | 51.88059 | 0.23302 | 337 ft | 18 kts | 223° |
| 2026-04-22 12:23 | 51.87969 | 0.23167 | 336 ft | 16 kts | 222° |
| 2026-04-22 12:23 | 51.87890 | 0.23050 | 338 ft | 15 kts | 223° |
| 2026-04-22 12:23 | 51.87819 | 0.22941 | 339 ft | 13 kts | 224° |
| 2026-04-22 12:24 | 51.87758 | 0.22853 | 335 ft | 11 kts | 221° |
| 2026-04-22 12:24 | 51.87681 | 0.22737 | 335 ft | 18 kts | 224° |
| 2026-04-22 12:24 | 51.87588 | 0.22597 | 330 ft | 19 kts | 222° |
| 2026-04-22 12:24 | 51.87489 | 0.22451 | 330 ft | 19 kts | 223° |
| 2026-04-22 12:25 | 51.87426 | 0.22351 | 326 ft | 19 kts | 226° |
| 2026-04-22 12:25 | 51.87419 | 0.22172 | 324 ft | 16 kts | 306° |
| 2026-04-22 12:25 | 51.87496 | 0.22042 | 322 ft | 9 kts | 315° |
| 2026-04-22 12:25 | 51.87536 | 0.22030 | 323 ft | 5 kts | 43° |
| 2026-04-22 12:26 | 51.87537 | 0.22032 | 323 ft | 0 kts | 43° |
| 2026-04-22 12:26 | 51.87648 | 0.22202 | 324 ft | 57 kts | 43° |
| 2026-04-22 12:26 | 51.88099 | 0.22879 | 331 ft | 118 kts | 43° |
| 2026-04-22 12:27 | 51.88813 | 0.23962 | 427 ft | 156 kts | 44° |
| 2026-04-22 12:27 | 51.89609 | 0.25138 | 1102 ft | 155 kts | 48° |
| 2026-04-22 12:27 | 51.90400 | 0.26324 | 1807 ft | 159 kts | 48° |
| 2026-04-22 12:27 | 51.91259 | 0.27635 | 2167 ft | 181 kts | 47° |
| 2026-04-22 12:28 | 51.92249 | 0.29091 | 2539 ft | 203 kts | 40° |
| 2026-04-22 12:28 | 51.93689 | 0.29742 | 3040 ft | 234 kts | 359° |
| 2026-04-22 12:28 | 51.95206 | 0.28606 | 3836 ft | 254 kts | 320° |
| 2026-04-22 12:28 | 51.96280 | 0.26271 | 4632 ft | 262 kts | 306° |
| 2026-04-22 12:29 | 51.97158 | 0.23587 | 4957 ft | 282 kts | 291° |
| 2026-04-22 12:29 | 51.97694 | 0.20514 | 5006 ft | 289 kts | 282° |
| 2026-04-22 12:29 | 51.98045 | 0.17257 | 5010 ft | 290 kts | 278° |
| 2026-04-22 12:29 | 51.98318 | 0.14048 | 5012 ft | 292 kts | 277° |
| 2026-04-22 12:30 | 51.98882 | 0.07510 | 5010 ft | 292 kts | 275° |
| 2026-04-22 12:30 | 51.98852 | 0.04241 | 5012 ft | 289 kts | 261° |
| 2026-04-22 12:30 | 51.98576 | 0.01006 | 5013 ft | 289 kts | 260° |
| 2026-04-22 12:31 | 51.98323 | -0.02237 | 5009 ft | 290 kts | 261° |
| 2026-04-22 12:31 | 51.98080 | -0.05494 | 5007 ft | 291 kts | 261° |
| 2026-04-22 12:31 | 51.97842 | -0.08757 | 5007 ft | 291 kts | 261° |
| 2026-04-22 12:31 | 51.97601 | -0.12019 | 5009 ft | 291 kts | 261° |
| 2026-04-22 12:32 | 51.97355 | -0.15304 | 5335 ft | 294 kts | 261° |
| 2026-04-22 12:32 | 51.96851 | -0.21912 | 7216 ft | 298 kts | 260° |
| 2026-04-22 12:32 | 51.96592 | -0.25266 | 8100 ft | 301 kts | 260° |
| 2026-04-22 12:33 | 51.96329 | -0.28652 | 9001 ft | 304 kts | 259° |
| 2026-04-22 12:33 | 51.96063 | -0.32058 | 9916 ft | 306 kts | 259° |
| 2026-04-22 12:33 | 51.95790 | -0.35517 | 10585 ft | 318 kts | 259° |
| 2026-04-22 12:33 | 51.95492 | -0.39204 | 10891 ft | 339 kts | 259° |
| 2026-04-22 12:34 | 51.95185 | -0.43045 | 11535 ft | 347 kts | 260° |
| 2026-04-22 12:34 | 51.94919 | -0.46953 | 12303 ft | 352 kts | 265° |
| 2026-04-22 12:34 | 51.95165 | -0.50947 | 13019 ft | 361 kts | 282° |
| 2026-04-22 12:34 | 51.96089 | -0.54748 | 13816 ft | 365 kts | 299° |
| 2026-04-22 12:35 | 51.97621 | -0.58044 | 14478 ft | 370 kts | 316° |
| 2026-04-22 12:35 | 51.99669 | -0.60544 | 15191 ft | 369 kts | 330° |
| 2026-04-22 12:35 | 52.01879 | -0.62702 | 15857 ft | 371 kts | 330° |
| 2026-04-22 12:35 | 52.04056 | -0.64832 | 16625 ft | 371 kts | 330° |
| 2026-04-22 12:36 | 52.06285 | -0.67015 | 17206 ft | 376 kts | 330° |
| 2026-04-22 12:36 | 52.08537 | -0.69228 | 17828 ft | 381 kts | 330° |
| 2026-04-22 12:36 | 52.10815 | -0.71470 | 18453 ft | 384 kts | 330° |
| 2026-04-22 12:36 | 52.13103 | -0.73726 | 19084 ft | 385 kts | 330° |
| 2026-04-22 12:37 | 52.15394 | -0.75988 | 19753 ft | 384 kts | 329° |
| 2026-04-22 12:37 | 52.17671 | -0.78238 | 20488 ft | 381 kts | 330° |
| 2026-04-22 12:37 | 52.19934 | -0.80476 | 21205 ft | 379 kts | 330° |
| 2026-04-22 12:37 | 52.22175 | -0.82693 | 21949 ft | 375 kts | 330° |
| 2026-04-22 12:38 | 52.24393 | -0.84893 | 22693 ft | 372 kts | 329° |
| 2026-04-22 12:38 | 52.26602 | -0.87087 | 23205 ft | 373 kts | 329° |
| 2026-04-22 12:38 | 52.28820 | -0.89288 | 23334 ft | 372 kts | 329° |
| 2026-04-22 12:38 | 52.31039 | -0.91488 | 23510 ft | 374 kts | 329° |
| 2026-04-22 12:39 | 52.33266 | -0.93702 | 24059 ft | 375 kts | 329° |
| 2026-04-22 12:39 | 52.37740 | -0.98163 | 24986 ft | 378 kts | 329° |
| 2026-04-22 12:39 | 52.39992 | -1.00407 | 25399 ft | 380 kts | 328° |
| 2026-04-22 12:40 | 52.42264 | -1.02674 | 25747 ft | 384 kts | 328° |
| 2026-04-22 12:40 | 52.44552 | -1.04967 | 26143 ft | 385 kts | 328° |
| 2026-04-22 12:40 | 52.46814 | -1.07240 | 26548 ft | 387 kts | 328° |
| 2026-04-22 12:40 | 52.49116 | -1.09557 | 26972 ft | 389 kts | 327° |
| 2026-04-22 12:41 | 52.51429 | -1.11892 | 27338 ft | 391 kts | 327° |
| 2026-04-22 12:41 | 52.53744 | -1.14233 | 27712 ft | 393 kts | 327° |
| 2026-04-22 12:41 | 52.56085 | -1.16596 | 28055 ft | 395 kts | 327° |
| 2026-04-22 12:41 | 52.58465 | -1.18994 | 28446 ft | 397 kts | 327° |
| 2026-04-22 12:42 | 52.60824 | -1.21368 | 28810 ft | 399 kts | 327° |
| 2026-04-22 12:42 | 52.63166 | -1.23728 | 29165 ft | 401 kts | 327° |
| 2026-04-22 12:42 | 52.65580 | -1.26168 | 29543 ft | 403 kts | 327° |
| 2026-04-22 12:42 | 52.67938 | -1.28560 | 29910 ft | 404 kts | 327° |
| 2026-04-22 12:43 | 52.70338 | -1.30996 | 30275 ft | 406 kts | 327° |
| 2026-04-22 12:43 | 52.72748 | -1.33443 | 30588 ft | 408 kts | 327° |
| 2026-04-22 12:43 | 52.75173 | -1.35911 | 31063 ft | 410 kts | 327° |
| 2026-04-22 12:43 | 52.77603 | -1.38388 | 31344 ft | 412 kts | 327° |
| 2026-04-22 12:44 | 52.80044 | -1.40885 | 31607 ft | 414 kts | 327° |
| 2026-04-22 12:44 | 52.82497 | -1.43400 | 31918 ft | 414 kts | 327° |
| 2026-04-22 12:44 | 52.84948 | -1.45917 | 32281 ft | 414 kts | 327° |
| 2026-04-22 12:44 | 52.87390 | -1.48425 | 32390 ft | 410 kts | 327° |
| 2026-04-22 12:45 | 52.89771 | -1.50871 | 32406 ft | 394 kts | 327° |
| 2026-04-22 12:45 | 52.94397 | -1.55626 | 32401 ft | 391 kts | 326° |
| 2026-04-22 12:46 | 52.99012 | -1.60385 | 32408 ft | 391 kts | 326° |
| 2026-04-22 12:46 | 53.03612 | -1.65154 | 32400 ft | 389 kts | 326° |
| 2026-04-22 12:47 | 53.08538 | -1.68937 | 32398 ft | 392 kts | 337° |
| 2026-04-22 12:47 | 53.13656 | -1.72087 | 32396 ft | 392 kts | 337° |
| 2026-04-22 12:48 | 53.18766 | -1.75270 | 32403 ft | 392 kts | 337° |
| 2026-04-22 12:48 | 53.23841 | -1.78439 | 32404 ft | 392 kts | 337° |
| 2026-04-22 12:49 | 53.28948 | -1.81626 | 32417 ft | 392 kts | 337° |
| 2026-04-22 12:49 | 53.34052 | -1.84804 | 32413 ft | 391 kts | 337° |
| 2026-04-22 12:50 | 53.39142 | -1.87989 | 32398 ft | 391 kts | 337° |
| 2026-04-22 12:50 | 53.44235 | -1.91199 | 32415 ft | 391 kts | 337° |
| 2026-04-22 12:51 | 53.49319 | -1.94396 | 32406 ft | 391 kts | 337° |
| 2026-04-22 12:51 | 53.54413 | -1.97617 | 32412 ft | 390 kts | 337° |
| 2026-04-22 12:52 | 53.59493 | -2.00843 | 32407 ft | 390 kts | 337° |
| 2026-04-22 12:52 | 53.64577 | -2.04077 | 32408 ft | 390 kts | 337° |
| 2026-04-22 12:53 | 53.69632 | -2.07293 | 32408 ft | 390 kts | 337° |
| 2026-04-22 12:53 | 53.74715 | -2.10541 | 32404 ft | 391 kts | 336° |
| 2026-04-22 12:54 | 53.79778 | -2.13910 | 32398 ft | 391 kts | 335° |
| 2026-04-22 12:54 | 53.84814 | -2.17388 | 32404 ft | 391 kts | 335° |
| 2026-04-22 12:55 | 53.89853 | -2.20877 | 32400 ft | 391 kts | 335° |
| 2026-04-22 12:55 | 53.94901 | -2.24343 | 32411 ft | 391 kts | 335° |
| 2026-04-22 12:56 | 53.99946 | -2.27804 | 32418 ft | 391 kts | 335° |
| 2026-04-22 12:56 | 54.04994 | -2.31278 | 32430 ft | 391 kts | 335° |
| 2026-04-22 12:57 | 54.10027 | -2.34760 | 32406 ft | 391 kts | 335° |
| 2026-04-22 12:57 | 54.15066 | -2.38260 | 32418 ft | 391 kts | 335° |
| 2026-04-22 12:58 | 54.20103 | -2.41760 | 32416 ft | 391 kts | 335° |
| 2026-04-22 12:58 | 54.25140 | -2.45263 | 32439 ft | 391 kts | 334° |
| 2026-04-22 12:59 | 54.30170 | -2.48785 | 32432 ft | 390 kts | 335° |
| 2026-04-22 12:59 | 54.35202 | -2.52307 | 32440 ft | 390 kts | 334° |
| 2026-04-22 13:00 | 54.40188 | -2.55810 | 32436 ft | 390 kts | 335° |
| 2026-04-22 13:00 | 54.45215 | -2.59345 | 32431 ft | 390 kts | 334° |
| 2026-04-22 13:01 | 54.50236 | -2.62883 | 32433 ft | 390 kts | 335° |
| 2026-04-22 13:01 | 54.55269 | -2.66435 | 32434 ft | 394 kts | 335° |
| 2026-04-22 13:02 | 54.60344 | -2.70033 | 32065 ft | 384 kts | 334° |
| 2026-04-22 13:02 | 54.62795 | -2.71769 | 31373 ft | 376 kts | 334° |
| 2026-04-22 13:02 | 54.65198 | -2.73476 | 30630 ft | 371 kts | 334° |
| 2026-04-22 13:02 | 54.67563 | -2.75165 | 29772 ft | 366 kts | 334° |
| 2026-04-22 13:03 | 54.69900 | -2.76840 | 28930 ft | 361 kts | 334° |
| 2026-04-22 13:03 | 54.72201 | -2.78491 | 28134 ft | 357 kts | 334° |
| 2026-04-22 13:03 | 54.74484 | -2.80130 | 27319 ft | 353 kts | 334° |
| 2026-04-22 13:03 | 54.76737 | -2.81747 | 26531 ft | 349 kts | 334° |
| 2026-04-22 13:04 | 54.78982 | -2.83358 | 26004 ft | 349 kts | 334° |
| 2026-04-22 13:04 | 54.81216 | -2.84957 | 25562 ft | 346 kts | 334° |
| 2026-04-22 13:04 | 54.83434 | -2.86548 | 25143 ft | 344 kts | 334° |
| 2026-04-22 13:04 | 54.85641 | -2.88138 | 24708 ft | 342 kts | 334° |
| 2026-04-22 13:05 | 54.87833 | -2.89717 | 24279 ft | 340 kts | 334° |
| 2026-04-22 13:05 | 54.90011 | -2.91289 | 23820 ft | 339 kts | 334° |
| 2026-04-22 13:05 | 54.92181 | -2.92859 | 23316 ft | 337 kts | 334° |
| 2026-04-22 13:05 | 54.94347 | -2.94427 | 22825 ft | 337 kts | 334° |
| 2026-04-22 13:06 | 54.96507 | -2.95995 | 22345 ft | 336 kts | 334° |
| 2026-04-22 13:06 | 54.98665 | -2.97562 | 21858 ft | 336 kts | 334° |
| 2026-04-22 13:06 | 55.00821 | -2.99128 | 21362 ft | 336 kts | 334° |
| 2026-04-22 13:06 | 55.02983 | -3.00696 | 20891 ft | 337 kts | 334° |
| 2026-04-22 13:07 | 55.05153 | -3.02275 | 20392 ft | 339 kts | 334° |
| 2026-04-22 13:07 | 55.07340 | -3.03875 | 19890 ft | 341 kts | 335° |
| 2026-04-22 13:07 | 55.09506 | -3.05461 | 19438 ft | 343 kts | 335° |
| 2026-04-22 13:07 | 55.11701 | -3.07067 | 19066 ft | 342 kts | 335° |
| 2026-04-22 13:08 | 55.13902 | -3.08678 | 18624 ft | 343 kts | 336° |
| 2026-04-22 13:08 | 55.16106 | -3.10288 | 18153 ft | 344 kts | 336° |
| 2026-04-22 13:08 | 55.18309 | -3.11898 | 17773 ft | 342 kts | 336° |
| 2026-04-22 13:08 | 55.20499 | -3.13494 | 17421 ft | 339 kts | 337° |
| 2026-04-22 13:09 | 55.21964 | -3.14566 | 17177 ft | 338 kts | 336° |
| 2026-04-22 13:09 | 55.24129 | -3.16155 | 16810 ft | 337 kts | 337° |
| 2026-04-22 13:09 | 55.26268 | -3.17724 | 16426 ft | 337 kts | 337° |
| 2026-04-22 13:09 | 55.28438 | -3.19224 | 16105 ft | 334 kts | 343° |
| 2026-04-22 13:10 | 55.30696 | -3.20005 | 15833 ft | 329 kts | 357° |
| 2026-04-22 13:10 | 55.32969 | -3.19948 | 15504 ft | 326 kts | 8° |
| 2026-04-22 13:10 | 55.35229 | -3.19575 | 15156 ft | 325 kts | 7° |
| 2026-04-22 13:10 | 55.37474 | -3.19214 | 14872 ft | 322 kts | 7° |
| 2026-04-22 13:11 | 55.39703 | -3.18863 | 14562 ft | 321 kts | 7° |
| 2026-04-22 13:11 | 55.41929 | -3.18521 | 14225 ft | 320 kts | 7° |
| 2026-04-22 13:11 | 55.44140 | -3.18181 | 13934 ft | 317 kts | 7° |
| 2026-04-22 13:11 | 55.46332 | -3.17840 | 13562 ft | 316 kts | 8° |
| 2026-04-22 13:12 | 55.48520 | -3.17493 | 13208 ft | 315 kts | 7° |
| 2026-04-22 13:12 | 55.50694 | -3.17147 | 12893 ft | 312 kts | 7° |
| 2026-04-22 13:12 | 55.52850 | -3.16804 | 12564 ft | 310 kts | 7° |
| 2026-04-22 13:12 | 55.54993 | -3.16467 | 12242 ft | 308 kts | 7° |
| 2026-04-22 13:13 | 55.57119 | -3.16132 | 11919 ft | 306 kts | 7° |
| 2026-04-22 13:13 | 55.59236 | -3.15800 | 11574 ft | 304 kts | 7° |
| 2026-04-22 13:13 | 55.61313 | -3.15477 | 11404 ft | 291 kts | 7° |
| 2026-04-22 13:13 | 55.63289 | -3.15176 | 11061 ft | 280 kts | 7° |
| 2026-04-22 13:14 | 55.65218 | -3.14931 | 10586 ft | 277 kts | 1° |
| 2026-04-22 13:14 | 55.67096 | -3.15681 | 10054 ft | 278 kts | 334° |
| 2026-04-22 13:14 | 55.68627 | -3.17712 | 9502 ft | 276 kts | 309° |
| 2026-04-22 13:14 | 55.69562 | -3.20629 | 8957 ft | 272 kts | 284° |
| 2026-04-22 13:15 | 55.69766 | -3.23912 | 8598 ft | 267 kts | 261° |
| 2026-04-22 13:15 | 55.69332 | -3.27073 | 8240 ft | 263 kts | 249° |
| 2026-04-22 13:15 | 55.68775 | -3.30148 | 7888 ft | 262 kts | 248° |
| 2026-04-22 13:15 | 55.68228 | -3.33156 | 7698 ft | 254 kts | 249° |
| 2026-04-22 13:16 | 55.67698 | -3.36080 | 7572 ft | 244 kts | 248° |
| 2026-04-22 13:16 | 55.67181 | -3.38918 | 7314 ft | 240 kts | 249° |
| 2026-04-22 13:16 | 55.66670 | -3.41717 | 7023 ft | 238 kts | 249° |
| 2026-04-22 13:16 | 55.66159 | -3.44509 | 6685 ft | 238 kts | 247° |
| 2026-04-22 13:17 | 55.65648 | -3.47289 | 6403 ft | 237 kts | 248° |
| 2026-04-22 13:17 | 55.65138 | -3.50057 | 6142 ft | 236 kts | 248° |
| 2026-04-22 13:17 | 55.64726 | -3.52870 | 5880 ft | 239 kts | 261° |
| 2026-04-22 13:17 | 55.64901 | -3.55804 | 5608 ft | 243 kts | 287° |
| 2026-04-22 13:18 | 55.65722 | -3.58383 | 5361 ft | 241 kts | 312° |
| 2026-04-22 13:18 | 55.66951 | -3.60419 | 5108 ft | 244 kts | 318° |
| 2026-04-22 13:18 | 55.68214 | -3.62434 | 4844 ft | 242 kts | 318° |
| 2026-04-22 13:18 | 55.69468 | -3.64420 | 4584 ft | 242 kts | 320° |
| 2026-04-22 13:19 | 55.70748 | -3.66326 | 4323 ft | 239 kts | 321° |
| 2026-04-22 13:19 | 55.72041 | -3.68188 | 4082 ft | 238 kts | 322° |
| 2026-04-22 13:19 | 55.73322 | -3.70019 | 3982 ft | 236 kts | 322° |
| 2026-04-22 13:19 | 55.74590 | -3.71842 | 3987 ft | 235 kts | 322° |
| 2026-04-22 13:20 | 55.75858 | -3.73721 | 3987 ft | 240 kts | 319° |
| 2026-04-22 13:20 | 55.77064 | -3.75757 | 3976 ft | 238 kts | 316° |
| 2026-04-22 13:20 | 55.78398 | -3.77447 | 3973 ft | 236 kts | 344° |
| 2026-04-22 13:20 | 55.79988 | -3.77712 | 3977 ft | 228 kts | 17° |
| 2026-04-22 13:21 | 55.81376 | -3.76556 | 3979 ft | 218 kts | 47° |
| 2026-04-22 13:21 | 55.82278 | -3.74477 | 3995 ft | 212 kts | 64° |
| 2026-04-22 13:21 | 55.83043 | -3.72240 | 3996 ft | 211 kts | 65° |
| 2026-04-22 13:21 | 55.83810 | -3.70002 | 4000 ft | 212 kts | 64° |
| 2026-04-22 13:22 | 55.84583 | -3.67751 | 3914 ft | 213 kts | 63° |
| 2026-04-22 13:22 | 55.85346 | -3.65534 | 3692 ft | 209 kts | 64° |
| 2026-04-22 13:22 | 55.86101 | -3.63333 | 3415 ft | 208 kts | 62° |
| 2026-04-22 13:22 | 55.86842 | -3.61171 | 3132 ft | 200 kts | 62° |
| 2026-04-22 13:23 | 55.87550 | -3.59109 | 2870 ft | 187 kts | 61° |
| 2026-04-22 13:23 | 55.88197 | -3.57219 | 2616 ft | 170 kts | 62° |
| 2026-04-22 13:23 | 55.88784 | -3.55505 | 2423 ft | 155 kts | 62° |
| 2026-04-22 13:23 | 55.89322 | -3.53927 | 2195 ft | 147 kts | 62° |
| 2026-04-22 13:24 | 55.89845 | -3.52397 | 1990 ft | 142 kts | 62° |
| 2026-04-22 13:24 | 55.90356 | -3.50896 | 1793 ft | 141 kts | 62° |
| 2026-04-22 13:24 | 55.90864 | -3.49406 | 1585 ft | 141 kts | 62° |
| 2026-04-22 13:24 | 55.91374 | -3.47910 | 1387 ft | 142 kts | 62° |
| 2026-04-22 13:25 | 55.91883 | -3.46415 | 1185 ft | 134 kts | 61° |
| 2026-04-22 13:25 | 55.92353 | -3.45038 | 987 ft | 128 kts | 62° |
| 2026-04-22 13:25 | 55.92807 | -3.43703 | 818 ft | 125 kts | 60° |
| 2026-04-22 13:25 | 55.93247 | -3.42367 | 654 ft | 125 kts | 58° |
| 2026-04-22 13:26 | 55.93703 | -3.41055 | 469 ft | 124 kts | 57° |
| 2026-04-22 13:26 | 55.94155 | -3.39752 | 311 ft | 122 kts | 59° |
| 2026-04-22 13:26 | 55.94588 | -3.38453 | 138 ft | 121 kts | 58° |
| 2026-04-22 13:26 | 55.94981 | -3.37306 | 111 ft | 93 kts | 58° |
| 2026-04-22 13:27 | 55.95224 | -3.36590 | 113 ft | 32 kts | 58° |
| 2026-04-22 13:27 | 55.95234 | -3.36396 | 113 ft | 14 kts | 143° |
| 2026-04-22 13:27 | 55.95191 | -3.36348 | 115 ft | 4 kts | 149° |
| 2026-04-22 13:27 | 55.95181 | -3.36338 | 114 ft | 0 kts | 150° |
| 2026-04-22 13:29 | 55.95142 | -3.36315 | 116 ft | 8 kts | 184° |
| 2026-04-22 13:29 | 55.95105 | -3.36371 | 114 ft | 7 kts | 236° |
| 2026-04-22 13:29 | 55.95064 | -3.36490 | 114 ft | 14 kts | 239° |
| 2026-04-22 13:29 | 55.95016 | -3.36632 | 114 ft | 13 kts | 239° |
| 2026-04-22 13:30 | 55.94971 | -3.36764 | 113 ft | 12 kts | 239° |
| 2026-04-22 13:30 | 55.94912 | -3.36818 | 112 ft | 10 kts | 158° |
| 2026-04-22 13:30 | 55.94857 | -3.36783 | 115 ft | 7 kts | 173° |
| 2026-04-22 13:30 | 55.94810 | -3.36770 | 116 ft | 6 kts | 148° |
| 2026-04-22 13:31 | 55.94800 | -3.36704 | 115 ft | 6 kts | 90° |
| 2026-04-22 13:31 | 55.94801 | -3.36638 | 116 ft | 0 kts | 89° |